createdAt,value
2022-08-17T00:02:25.836Z,18.80
2022-08-17T00:05:32.804Z,18.80
2022-08-17T00:08:48.768Z,18.80
2022-08-17T00:12:40.366Z,18.90
2022-08-17T00:15:15.641Z,18.90
2022-08-17T00:19:06.197Z,18.90
2022-08-17T00:22:32.988Z,18.90
2022-08-17T00:25:09.908Z,18.90
2022-08-17T00:28:12.496Z,18.90
2022-08-17T00:31:14.836Z,18.80
2022-08-17T00:34:17.162Z,18.70
2022-08-17T00:37:19.159Z,18.60
2022-08-17T00:40:21.730Z,18.50
2022-08-17T00:43:34.424Z,18.50
2022-08-17T00:46:41.061Z,18.60
2022-08-17T00:49:43.963Z,18.50
2022-08-17T00:52:56.042Z,18.50
2022-08-17T00:56:01.675Z,18.60
2022-08-17T00:59:07.352Z,18.40
2022-08-17T01:02:12.557Z,18.30
2022-08-17T01:05:23.410Z,18.20
2022-08-17T01:08:29.964Z,18.20
2022-08-17T01:11:33.235Z,18.20
2022-08-17T01:14:35.406Z,18.10
2022-08-17T01:17:37.808Z,18.00
2022-08-17T01:20:48.900Z,18.00
2022-08-17T01:23:51.209Z,18.00
2022-08-17T01:26:53.757Z,18.10
2022-08-17T01:30:02.971Z,18.10
2022-08-17T01:33:05.738Z,18.20
2022-08-17T01:36:08.700Z,18.20
2022-08-17T01:39:23.356Z,18.30
2022-08-17T01:42:36.792Z,18.30
2022-08-17T01:45:44.047Z,18.30
2022-08-17T01:48:47.662Z,18.20
2022-08-17T01:51:50.061Z,18.20
2022-08-17T01:54:53.254Z,18.30
2022-08-17T01:57:55.396Z,18.30
2022-08-17T02:01:00.721Z,18.30
2022-08-17T02:04:06.531Z,18.40
2022-08-17T02:07:08.518Z,18.30
2022-08-17T02:10:19.791Z,18.20
2022-08-17T02:13:22.229Z,18.30
2022-08-17T02:16:24.137Z,18.30
2022-08-17T02:19:26.161Z,18.30
2022-08-17T02:22:29.117Z,18.30
2022-08-17T02:25:33.767Z,18.20
2022-08-17T02:28:36.118Z,18.20
2022-08-17T02:31:38.143Z,18.20
2022-08-17T02:34:40.057Z,18.10
2022-08-17T02:37:44.688Z,18.10
2022-08-17T02:40:53.799Z,18.00
2022-08-17T02:43:55.770Z,18.10
2022-08-17T02:46:57.719Z,18.10
2022-08-17T02:49:59.709Z,18.20
2022-08-17T02:53:02.869Z,18.30
2022-08-17T02:56:07.162Z,18.40
2022-08-17T02:59:09.063Z,18.50
2022-08-17T03:02:12.135Z,18.40
2022-08-17T03:05:17.049Z,18.30
2022-08-17T03:08:19.904Z,18.40
2022-08-17T03:11:22.033Z,18.20
2022-08-17T03:14:26.004Z,18.10
2022-08-17T03:17:28.289Z,18.20
2022-08-17T03:20:32.550Z,18.30
2022-08-17T03:23:40.914Z,18.30
2022-08-17T03:26:44.196Z,18.40
2022-08-17T03:29:45.995Z,18.30
2022-08-17T03:32:49.644Z,18.40
2022-08-17T03:35:51.933Z,18.40
2022-08-17T03:38:53.893Z,18.70
2022-08-17T03:42:31.135Z,18.60
2022-08-17T03:45:52.482Z,18.60
2022-08-17T03:49:13.744Z,18.60
2022-08-17T03:52:34.010Z,18.90
2022-08-17T03:55:56.055Z,18.80
2022-08-17T03:58:58.343Z,19.00
2022-08-17T04:02:11.128Z,19.10
2022-08-17T04:05:15.052Z,19.20
2022-08-17T04:08:16.939Z,19.40
2022-08-17T04:11:18.880Z,19.30
2022-08-17T04:14:21.095Z,19.30
2022-08-17T04:17:27.513Z,19.50
2022-08-17T04:20:29.917Z,19.50
2022-08-17T04:23:34.035Z,19.50
2022-08-17T04:26:53.914Z,19.60
2022-08-17T04:29:56.638Z,19.60
2022-08-17T04:33:06.370Z,19.60
2022-08-17T04:36:09.150Z,19.80
2022-08-17T04:39:11.363Z,19.80
2022-08-17T04:42:17.344Z,19.90
2022-08-17T04:45:19.322Z,19.80
2022-08-17T04:48:21.513Z,19.90
2022-08-17T04:51:30.683Z,19.90
2022-08-17T04:54:32.708Z,20.00
2022-08-17T04:57:39.418Z,20.10
2022-08-17T05:00:44.057Z,20.30
2022-08-17T05:03:46.036Z,20.60
2022-08-17T05:06:50.361Z,20.60
2022-08-17T05:09:52.284Z,20.60
2022-08-17T05:13:02.078Z,20.60
2022-08-17T05:16:04.676Z,20.60
2022-08-17T05:19:06.710Z,20.70
2022-08-17T05:22:08.677Z,20.90
2022-08-17T05:25:10.647Z,20.90
2022-08-17T05:28:13.145Z,21.10
2022-08-17T05:31:16.093Z,21.20
2022-08-17T05:34:17.981Z,21.50
2022-08-17T05:37:19.996Z,21.60
2022-08-17T05:40:22.676Z,21.70
2022-08-17T05:43:34.224Z,21.80
2022-08-17T05:46:41.790Z,21.80
2022-08-17T05:49:43.919Z,21.90
2022-08-17T05:52:46.697Z,22.10
2022-08-17T05:56:29.646Z,22.10
2022-08-17T06:00:08.124Z,22.40
2022-08-17T06:03:28.725Z,22.60
2022-08-17T06:06:53.581Z,22.60
2022-08-17T06:10:03.665Z,22.80
2022-08-17T06:13:17.868Z,22.80
2022-08-17T06:16:34.479Z,23.00
2022-08-17T06:19:45.840Z,22.90
2022-08-17T06:22:56.769Z,22.90
2022-08-17T06:26:05.722Z,23.00
2022-08-17T06:29:35.463Z,23.10
2022-08-17T06:32:39.995Z,23.20
2022-08-17T06:36:09.228Z,23.40
2022-08-17T06:39:32.430Z,23.30
2022-08-17T06:42:54.910Z,23.50
2022-08-17T06:46:16.381Z,23.70
2022-08-17T06:49:38.754Z,23.90
2022-08-17T06:53:15.617Z,23.90
2022-08-17T06:57:02.551Z,24.10
2022-08-17T07:00:13.767Z,24.10
2022-08-17T07:03:35.839Z,24.30
2022-08-17T07:06:47.669Z,24.20
2022-08-17T07:09:51.170Z,24.50
2022-08-17T07:12:58.428Z,24.60
2022-08-17T07:16:25.934Z,24.80
2022-08-17T07:19:31.848Z,24.90
2022-08-17T07:22:59.740Z,24.70
2022-08-17T07:26:09.638Z,24.90
2022-08-17T07:29:16.381Z,25.20
2022-08-17T07:32:24.236Z,25.60
2022-08-17T07:35:37.852Z,25.80
2022-08-17T07:38:57.082Z,25.80
2022-08-17T07:42:04.546Z,25.70
2022-08-17T07:45:28.500Z,26.00
2022-08-17T07:48:35.919Z,26.00
2022-08-17T07:51:42.527Z,25.50
2022-08-17T07:54:44.482Z,25.30
2022-08-17T07:57:57.340Z,25.30
2022-08-17T08:01:10.336Z,25.40
2022-08-17T08:08:28.672Z,25.80
2022-08-17T08:11:36.537Z,25.60
2022-08-17T08:14:39.825Z,26.00
2022-08-17T08:17:57.592Z,26.30
2022-08-17T08:21:04.960Z,26.20
2022-08-17T08:24:12.766Z,25.60
2022-08-17T08:27:33.143Z,25.90
2022-08-17T08:30:41.574Z,26.10
2022-08-17T08:33:46.200Z,26.20
2022-08-17T08:37:12.911Z,26.10
2022-08-17T08:40:41.231Z,26.10
2022-08-17T08:45:00.010Z,26.20
2022-08-17T08:48:05.593Z,26.40
2022-08-17T08:51:39.812Z,26.40
2022-08-17T08:55:22.534Z,26.50
2022-08-17T08:58:32.121Z,26.70
2022-08-17T09:02:03.656Z,26.60
2022-08-17T09:05:14.196Z,26.90
2022-08-17T09:08:25.636Z,26.90
2022-08-17T09:12:02.911Z,26.70
2022-08-17T09:15:22.087Z,26.90
2022-08-17T09:19:00.555Z,27.00
2022-08-17T09:22:17.610Z,27.20
2022-08-17T09:25:29.061Z,27.00
2022-08-17T09:28:36.470Z,27.20
2022-08-17T09:31:49.529Z,27.20
2022-08-17T09:34:55.025Z,27.30
2022-08-17T09:38:15.256Z,27.30
2022-08-17T09:41:20.951Z,27.60
2022-08-17T09:44:55.339Z,27.60
2022-08-17T09:48:08.335Z,28.00
2022-08-17T09:51:34.793Z,27.50
2022-08-17T09:54:40.544Z,27.60
2022-08-17T09:58:09.503Z,28.20
2022-08-17T10:01:43.388Z,27.90
2022-08-17T10:05:13.811Z,27.60
2022-08-17T10:08:25.630Z,27.90
2022-08-17T10:12:17.790Z,28.20
2022-08-17T10:15:52.299Z,28.30
2022-08-17T10:18:54.179Z,28.20
2022-08-17T10:22:34.652Z,27.70
2022-08-17T10:26:14.811Z,27.70
2022-08-17T10:29:24.459Z,28.20
2022-08-17T10:32:45.092Z,28.30
2022-08-17T10:36:11.254Z,28.40
2022-08-17T10:39:23.098Z,28.50
2022-08-17T10:42:32.944Z,28.30
2022-08-17T10:45:47.159Z,28.40
2022-08-17T10:49:11.926Z,28.40
2022-08-17T10:52:30.514Z,28.30
2022-08-17T10:55:32.429Z,28.40
2022-08-17T10:58:55.031Z,28.60
2022-08-17T11:02:15.251Z,28.70
2022-08-17T11:05:40.166Z,28.70
2022-08-17T11:09:00.955Z,28.60
2022-08-17T11:12:43.485Z,28.90
2022-08-17T11:16:08.107Z,28.70
2022-08-17T11:19:37.471Z,28.60
2022-08-17T11:22:58.083Z,29.10
2022-08-17T11:26:08.263Z,28.80
2022-08-17T11:29:24.785Z,29.20
2022-08-17T11:32:59.068Z,29.30
2022-08-17T11:36:31.650Z,29.50
2022-08-17T11:40:01.702Z,29.00
2022-08-17T11:43:15.691Z,28.70
2022-08-17T11:46:23.313Z,29.20
2022-08-17T11:49:58.743Z,29.30
2022-08-17T11:53:00.974Z,29.30
2022-08-17T11:56:04.878Z,29.40
2022-08-17T11:59:40.075Z,28.90
2022-08-17T12:02:48.187Z,29.00
2022-08-17T12:06:01.762Z,29.20
2022-08-17T12:09:07.128Z,28.90
2022-08-17T12:12:20.148Z,28.70
2022-08-17T12:15:28.638Z,29.10
2022-08-17T12:18:35.677Z,29.30
2022-08-17T12:21:41.975Z,29.30
2022-08-17T12:24:56.750Z,29.60
2022-08-17T12:28:05.008Z,29.50
2022-08-17T12:31:21.997Z,29.60
2022-08-17T12:34:29.037Z,29.60
2022-08-17T12:37:35.732Z,29.40
2022-08-17T12:40:38.747Z,29.50
2022-08-17T12:43:40.671Z,29.50
2022-08-17T12:46:53.940Z,29.40
2022-08-17T12:50:08.350Z,28.90
2022-08-17T12:53:35.208Z,29.20
2022-08-17T12:56:37.272Z,29.20
2022-08-17T12:59:50.430Z,29.10
2022-08-17T13:03:02.594Z,29.20
2022-08-17T13:06:07.680Z,29.20
2022-08-17T13:09:35.310Z,29.30
2022-08-17T13:12:42.006Z,29.20
2022-08-17T13:15:59.521Z,29.30
2022-08-17T13:19:16.300Z,29.20
2022-08-17T13:22:23.753Z,29.20
2022-08-17T13:25:28.220Z,28.90
2022-08-17T13:28:36.375Z,28.60
2022-08-17T13:31:52.249Z,28.70
2022-08-17T13:35:15.315Z,28.70
2022-08-17T13:38:39.580Z,29.10
2022-08-17T13:41:41.719Z,29.00
2022-08-17T13:44:43.685Z,29.00
2022-08-17T13:47:45.582Z,28.80
2022-08-17T13:50:56.669Z,28.80
2022-08-17T13:54:01.901Z,29.00
2022-08-17T13:57:17.890Z,28.80
2022-08-17T14:00:32.517Z,29.00
2022-08-17T14:03:34.496Z,28.20
2022-08-17T14:07:08.661Z,27.10
2022-08-17T14:10:12.829Z,27.40
2022-08-17T14:13:15.431Z,27.50
2022-08-17T14:16:17.466Z,27.60
2022-08-17T14:19:22.115Z,27.70
2022-08-17T14:22:31.909Z,27.70
2022-08-17T14:25:33.841Z,27.70
2022-08-17T14:28:36.507Z,27.60
2022-08-17T14:31:39.070Z,26.60
2022-08-17T14:34:43.588Z,26.60
2022-08-17T14:37:48.157Z,26.60
2022-08-17T14:40:50.348Z,26.20
2022-08-17T14:43:53.504Z,25.40
2022-08-17T14:46:55.783Z,24.70
2022-08-17T14:49:59.269Z,24.60
2022-08-17T14:53:03.846Z,24.30
2022-08-17T14:56:06.008Z,24.00
2022-08-17T14:59:08.011Z,23.90
2022-08-17T15:02:10.843Z,23.60
2022-08-17T15:05:14.450Z,23.10
2022-08-17T15:08:19.578Z,22.60
2022-08-17T15:11:21.688Z,22.20
2022-08-17T15:14:23.635Z,21.70
2022-08-17T15:17:25.592Z,21.40
2022-08-17T15:20:48.680Z,21.00
2022-08-17T15:23:51.204Z,20.90
2022-08-17T15:26:53.147Z,21.00
2022-08-17T15:29:55.119Z,21.20
2022-08-17T15:32:59.571Z,21.30
2022-08-17T15:36:06.606Z,21.40
2022-08-17T15:39:08.771Z,21.50
2022-08-17T15:42:10.748Z,21.70
2022-08-17T15:45:14.276Z,22.20
2022-08-17T15:48:16.270Z,22.70
2022-08-17T15:51:28.110Z,23.10
2022-08-17T15:54:31.707Z,23.50
2022-08-17T15:57:36.772Z,24.00
2022-08-17T16:00:48.267Z,24.60
2022-08-17T16:04:05.012Z,24.30
2022-08-17T16:07:14.275Z,24.40
2022-08-17T16:10:19.033Z,24.50
2022-08-17T16:13:23.824Z,24.60
2022-08-17T16:16:26.456Z,24.40
2022-08-17T16:19:28.555Z,24.20
2022-08-17T16:22:42.711Z,24.60
2022-08-17T16:25:53.085Z,24.70
2022-08-17T16:28:56.979Z,24.40
2022-08-17T16:32:07.003Z,24.10
2022-08-17T16:35:12.022Z,24.00
2022-08-17T16:38:13.950Z,23.80
2022-08-17T16:41:36.226Z,23.90
2022-08-17T16:44:38.201Z,23.60
2022-08-17T16:47:42.103Z,23.30
2022-08-17T16:51:02.085Z,22.90
2022-08-17T16:54:07.398Z,22.60
2022-08-17T16:57:13.850Z,22.10
2022-08-17T17:00:16.998Z,21.50
2022-08-17T17:03:20.680Z,20.70
2022-08-17T17:07:01.425Z,20.30
2022-08-17T17:10:07.797Z,20.30
2022-08-17T17:13:28.708Z,20.30
2022-08-17T17:16:59.994Z,20.40
2022-08-17T17:20:10.614Z,20.40
2022-08-17T17:23:33.712Z,20.40
2022-08-17T17:26:55.385Z,20.30
2022-08-17T17:30:13.752Z,20.40
2022-08-17T17:33:29.027Z,20.40
2022-08-17T17:36:51.548Z,20.50
2022-08-17T17:39:57.504Z,20.60
2022-08-17T17:43:20.457Z,20.60
2022-08-17T17:46:27.675Z,20.70
2022-08-17T17:49:36.063Z,20.70
2022-08-17T17:52:45.341Z,20.60
2022-08-17T17:56:04.784Z,20.60
2022-08-17T17:59:43.296Z,20.60
2022-08-17T18:03:11.214Z,20.60
2022-08-17T18:06:47.179Z,20.60
2022-08-17T18:09:55.568Z,20.60
2022-08-17T18:13:15.991Z,20.70
2022-08-17T18:16:19.289Z,20.70
2022-08-17T18:19:22.556Z,20.70
2022-08-17T18:22:24.973Z,20.70
2022-08-17T18:25:47.928Z,20.80
2022-08-17T18:28:51.973Z,20.90
2022-08-17T18:32:17.833Z,20.90
2022-08-17T18:35:19.743Z,20.80
2022-08-17T18:38:33.989Z,20.70
2022-08-17T18:41:44.815Z,20.50
2022-08-17T18:44:47.517Z,20.80
2022-08-17T18:47:55.968Z,20.80
2022-08-17T18:51:21.347Z,20.60
2022-08-17T18:55:00.660Z,20.50
2022-08-17T18:58:32.061Z,20.50
2022-08-17T19:02:16.040Z,20.40
2022-08-17T19:05:39.613Z,20.40
2022-08-17T19:08:42.087Z,20.40
2022-08-17T19:11:44.488Z,20.20
2022-08-17T19:14:46.767Z,20.20
2022-08-17T19:18:21.607Z,20.20
2022-08-17T19:21:38.144Z,20.30
2022-08-17T19:24:47.707Z,20.10
2022-08-17T19:28:02.440Z,20.00
2022-08-17T19:31:13.748Z,20.00
2022-08-17T19:34:17.232Z,20.00
2022-08-17T19:38:12.689Z,19.90
2022-08-17T19:41:21.876Z,20.00
2022-08-17T19:44:32.742Z,19.90
2022-08-17T19:48:13.967Z,19.90
2022-08-17T19:51:24.821Z,20.00
2022-08-17T19:54:34.109Z,19.90
2022-08-17T19:58:03.312Z,19.90
2022-08-17T20:01:10.597Z,19.90
2022-08-17T20:04:34.791Z,19.90
2022-08-17T20:07:48.199Z,19.80
2022-08-17T20:10:54.648Z,19.90
2022-08-17T20:14:12.607Z,19.90
2022-08-17T20:17:14.567Z,20.00
2022-08-17T20:20:29.728Z,19.90
2022-08-17T20:23:52.694Z,20.00
2022-08-17T20:27:31.972Z,19.80
2022-08-17T20:30:37.648Z,19.90
2022-08-17T20:33:39.790Z,20.00
2022-08-17T20:37:02.315Z,19.90
2022-08-17T20:40:04.408Z,20.00
2022-08-17T20:43:36.227Z,19.90
2022-08-17T20:46:39.572Z,19.90
2022-08-17T20:49:47.721Z,20.00
2022-08-17T20:52:52.688Z,20.10
2022-08-17T20:55:55.786Z,20.00
2022-08-17T20:59:00.743Z,20.00
2022-08-17T21:02:18.476Z,20.00
2022-08-17T21:05:58.839Z,19.90
2022-08-17T21:09:15.753Z,19.80
2022-08-17T21:13:04.384Z,19.80
2022-08-17T21:16:30.161Z,19.90
2022-08-17T21:19:34.991Z,19.90
2022-08-17T21:23:19.757Z,19.90
2022-08-17T21:26:34.096Z,19.90
2022-08-17T21:30:12.400Z,19.90
2022-08-17T21:33:17.139Z,19.80
2022-08-17T21:36:24.880Z,19.70
2022-08-17T21:39:39.701Z,19.70
2022-08-17T21:42:58.241Z,19.70
2022-08-17T21:46:07.057Z,19.70
2022-08-17T21:49:13.668Z,19.70
2022-08-17T21:52:18.113Z,19.70
2022-08-17T21:55:29.493Z,19.70
2022-08-17T21:58:48.257Z,19.70
2022-08-17T22:01:55.994Z,19.70
2022-08-17T22:05:08.247Z,19.70
2022-08-17T22:08:20.361Z,19.60
2022-08-17T22:11:22.929Z,19.60
2022-08-17T22:14:53.444Z,19.60
2022-08-17T22:17:56.164Z,19.60
2022-08-17T22:21:02.575Z,19.60
2022-08-17T22:24:15.391Z,19.60
2022-08-17T22:27:19.287Z,19.60
2022-08-17T22:30:36.854Z,19.60
2022-08-17T22:33:52.510Z,19.50
2022-08-17T22:37:28.502Z,19.50
2022-08-17T22:40:33.356Z,19.50
2022-08-17T22:43:38.695Z,19.50
2022-08-17T22:46:57.939Z,19.50
2022-08-17T22:50:11.931Z,19.50
2022-08-17T22:53:36.320Z,19.50
2022-08-17T22:57:05.422Z,19.40
2022-08-17T23:00:37.381Z,19.40
2022-08-17T23:03:57.497Z,19.40
2022-08-17T23:06:59.485Z,19.30
2022-08-17T23:10:06.341Z,19.40
2022-08-17T23:13:11.927Z,19.30
2022-08-17T23:16:15.106Z,19.50
2022-08-17T23:19:20.872Z,19.40
2022-08-17T23:22:23.668Z,19.30
2022-08-17T23:25:31.067Z,19.30
2022-08-17T23:28:37.041Z,19.30
2022-08-17T23:31:39.989Z,19.30
2022-08-17T23:34:44.745Z,19.30
2022-08-17T23:37:47.994Z,19.40
2022-08-17T23:40:50.015Z,19.30
2022-08-17T23:43:53.625Z,19.30
2022-08-17T23:46:55.989Z,19.40
2022-08-17T23:49:57.923Z,19.30
2022-08-17T23:53:05.524Z,19.30
2022-08-17T23:56:11.071Z,19.20
2022-08-17T23:59:15.415Z,19.30
